Time;durP1;ratioP1;P1;durP2;ratioP2;P2;SDS_P1;SDS_P2;PMS_P1;PMS_P2;Temp;Humidity;BMP_temperature;BMP_pressure;BME280_temperature;BME280_humidity;BME280_pressure;Samples;Min_cycle;Max_cycle;Signal;HPM_P1;HPM_P2
2024/01/03 00:00:45;;;;;;;;;;;10.40;99.90;;;;;;5037666;28;20267;-90
2024/01/03 00:03:11;;;;;;;;;;;10.30;99.90;;;;;;5036382;28;20575;-91
2024/01/03 00:05:38;;;;;;;;;;;10.30;99.90;;;;;;5041264;28;20132;-89
2024/01/03 00:08:11;;;;;;;;;;;10.30;99.90;;;;;;5044405;28;19970;-89
2024/01/03 00:10:53;;;;;;;;;;;10.20;99.90;;;;;;5040737;28;20285;-89
2024/01/03 00:13:39;;;;;;;;;;;10.20;99.90;;;;;;5038861;28;19948;-91
2024/01/03 00:16:04;;;;;;;;;;;10.20;99.90;;;;;;5036764;28;19928;-90
2024/01/03 00:18:32;;;;;;;;;;;10.20;99.90;;;;;;5042372;28;19909;-89
2024/01/03 00:20:58;;;;;;;;;;;10.20;99.90;;;;;;5041755;28;19912;-90
2024/01/03 00:23:28;;;;;;;;;;;10.20;99.90;;;;;;5037483;28;19931;-90
2024/01/03 00:25:53;;;;;;;;;;;10.20;99.90;;;;;;5038049;28;20543;-90
2024/01/03 00:28:19;;;;;;;;;;;10.20;99.90;;;;;;5039119;28;20740;-90
2024/01/03 00:30:44;;;;;;;;;;;10.20;99.90;;;;;;5039774;28;19928;-90
2024/01/03 00:33:10;;;;;;;;;;;10.20;99.90;;;;;;5040882;28;20045;-91
2024/01/03 00:35:35;;;;;;;;;;;10.10;99.90;;;;;;5041415;28;19942;-89
2024/01/03 00:38:01;;;;;;;;;;;10.10;99.90;;;;;;5048637;28;19924;-90
2024/01/03 00:40:46;;;;;;;;;;;10.10;99.90;;;;;;5049487;28;19991;-90
2024/01/03 00:43:12;;;;;;;;;;;10.10;99.90;;;;;;5037896;28;19988;-89
2024/01/03 00:45:39;;;;;;;;;;;10.10;99.90;;;;;;5039989;28;19913;-88
2024/01/03 00:48:06;;;;;;;;;;;10.10;99.90;;;;;;5024090;28;19928;-90
2024/01/03 00:50:32;;;;;;;;;;;10.00;99.90;;;;;;5038273;28;19925;-90
2024/01/03 00:52:57;;;;;;;;;;;10.00;99.90;;;;;;5037342;28;20270;-92
2024/01/03 00:55:23;;;;;;;;;;;10.00;99.90;;;;;;5036541;28;19980;-90
2024/01/03 00:57:48;;;;;;;;;;;10.00;99.90;;;;;;5039630;28;19970;-90
2024/01/03 01:00:14;;;;;;;;;;;10.00;99.90;;;;;;5039592;28;19908;-91
2024/01/03 01:02:39;;;;;;;;;;;10.00;99.90;;;;;;5034455;28;19919;-90
2024/01/03 01:05:05;;;;;;;;;;;9.90;99.90;;;;;;5041996;28;19928;-90
2024/01/03 01:07:31;;;;;;;;;;;9.90;99.90;;;;;;5037733;28;20346;-91
2024/01/03 01:09:56;;;;;;;;;;;9.90;99.90;;;;;;5038078;28;19924;-92
2024/01/03 01:12:22;;;;;;;;;;;10.00;99.90;;;;;;5036699;28;20050;-90
2024/01/03 01:14:48;;;;;;;;;;;10.10;99.90;;;;;;5038057;28;20054;-92
2024/01/03 01:17:14;;;;;;;;;;;10.20;99.90;;;;;;5041084;28;20319;-91
2024/01/03 01:19:40;;;;;;;;;;;10.20;99.90;;;;;;5038086;28;19936;-92
2024/01/03 01:22:06;;;;;;;;;;;10.20;99.90;;;;;;5037972;28;19998;-89
2024/01/03 01:24:31;;;;;;;;;;;10.30;99.90;;;;;;5038428;28;20397;-92
2024/01/03 01:26:57;;;;;;;;;;;10.20;99.90;;;;;;5036083;28;19927;-89
2024/01/03 01:29:22;;;;;;;;;;;10.30;99.90;;;;;;5038136;28;19919;-90
2024/01/03 01:31:48;;;;;;;;;;;10.30;99.90;;;;;;5039003;28;19935;-90
2024/01/03 01:34:13;;;;;;;;;;;10.30;99.90;;;;;;5040568;28;19952;-92
2024/01/03 01:36:39;;;;;;;;;;;10.30;99.90;;;;;;5055136;28;19949;-89
2024/01/03 01:39:04;;;;;;;;;;;10.40;99.90;;;;;;5046708;28;19927;-89
2024/01/03 01:41:30;;;;;;;;;;;10.30;99.90;;;;;;5043713;28;20288;-91
2024/01/03 01:43:55;;;;;;;;;;;10.30;99.90;;;;;;5037596;28;20436;-91
2024/01/03 01:46:23;;;;;;;;;;;10.40;99.90;;;;;;5039400;28;20478;-90
2024/01/03 01:48:50;;;;;;;;;;;10.30;99.90;;;;;;5038043;28;19921;-90
2024/01/03 01:51:16;;;;;;;;;;;10.30;99.90;;;;;;5036070;28;19909;-91
2024/01/03 01:53:42;;;;;;;;;;;10.30;99.90;;;;;;5036411;28;19983;-91
2024/01/03 01:56:08;;;;;;;;;;;10.20;99.90;;;;;;5035141;28;19917;-91
2024/01/03 01:58:34;;;;;;;;;;;10.30;99.90;;;;;;5037711;28;20012;-90
2024/01/03 02:01:00;;;;;;;;;;;10.30;99.90;;;;;;5039964;28;20618;-92
2024/01/03 02:03:25;;;;;;;;;;;10.20;99.90;;;;;;5037533;28;19913;-90
2024/01/03 02:05:51;;;;;;;;;;;10.00;99.90;;;;;;5036220;28;19941;-90
2024/01/03 02:08:17;;;;;;;;;;;9.80;99.90;;;;;;5036155;28;19925;-90
2024/01/03 02:10:42;;;;;;;;;;;9.70;99.90;;;;;;5035810;28;20573;-89
2024/01/03 02:13:08;;;;;;;;;;;9.60;99.90;;;;;;5038659;28;19965;-88
2024/01/03 02:15:33;;;;;;;;;;;9.60;99.90;;;;;;5039904;28;19913;-89
2024/01/03 02:17:59;;;;;;;;;;;9.60;99.90;;;;;;5038229;28;20369;-90
2024/01/03 02:20:25;;;;;;;;;;;9.50;99.90;;;;;;5043748;28;20424;-90
2024/01/03 02:22:51;;;;;;;;;;;9.50;99.90;;;;;;5036036;28;19958;-89
2024/01/03 02:25:16;;;;;;;;;;;9.50;99.90;;;;;;5035666;28;20285;-88
2024/01/03 02:27:42;;;;;;;;;;;9.40;99.90;;;;;;5032371;28;19940;-89
2024/01/03 02:30:08;;;;;;;;;;;9.40;99.90;;;;;;5037644;28;20022;-88
2024/01/03 02:32:34;;;;;;;;;;;9.40;99.90;;;;;;5036377;28;20041;-88
2024/01/03 02:35:00;;;;;;;;;;;9.30;99.90;;;;;;5033220;28;20057;-89
2024/01/03 02:37:25;;;;;;;;;;;9.30;99.90;;;;;;5039246;28;19985;-89
2024/01/03 02:39:51;;;;;;;;;;;9.30;99.90;;;;;;5032452;28;21506;-89
2024/01/03 02:42:16;;;;;;;;;;;9.30;99.90;;;;;;5032795;28;19926;-88
2024/01/03 02:44:42;;;;;;;;;;;9.30;99.90;;;;;;5034309;28;19929;-90
2024/01/03 02:47:08;;;;;;;;;;;9.20;99.90;;;;;;5030042;28;19916;-88
2024/01/03 02:49:34;;;;;;;;;;;9.20;99.90;;;;;;5029789;28;19921;-89
2024/01/03 02:52:00;;;;;;;;;;;9.20;99.90;;;;;;5031860;28;19915;-88
2024/01/03 02:54:26;;;;;;;;;;;9.20;99.90;;;;;;5032523;28;19915;-89
2024/01/03 02:56:51;;;;;;;;;;;9.20;99.90;;;;;;5029380;28;19930;-89
2024/01/03 02:59:17;;;;;;;;;;;9.20;99.90;;;;;;5039052;28;19923;-88
2024/01/03 03:01:43;;;;;;;;;;;9.20;99.90;;;;;;5028045;28;19951;-88
2024/01/03 03:04:08;;;;;;;;;;;9.30;99.90;;;;;;5033544;28;19935;-91
2024/01/03 03:07:05;;;;;;;;;;;9.40;99.90;;;;;;5033766;28;19927;-90
2024/01/03 03:09:30;;;;;;;;;;;9.40;99.90;;;;;;5036956;28;19923;-87
2024/01/03 03:11:56;;;;;;;;;;;9.30;99.90;;;;;;5041731;28;19995;-88
2024/01/03 03:14:22;;;;;;;;;;;9.30;99.90;;;;;;5034387;28;20485;-89
2024/01/03 03:16:47;;;;;;;;;;;9.30;99.90;;;;;;5039396;28;19909;-88
2024/01/03 03:19:13;;;;;;;;;;;9.40;99.90;;;;;;5036494;28;19908;-88
2024/01/03 03:21:38;;;;;;;;;;;9.30;99.90;;;;;;5037814;28;20418;-88
2024/01/03 03:24:04;;;;;;;;;;;9.40;99.90;;;;;;5037836;28;19917;-90
2024/01/03 03:26:29;;;;;;;;;;;9.40;99.90;;;;;;5033616;28;20461;-86
2024/01/03 03:28:55;;;;;;;;;;;9.40;99.90;;;;;;5033419;28;19920;-88
2024/01/03 03:31:20;;;;;;;;;;;9.40;99.90;;;;;;5039975;28;20583;-88
2024/01/03 03:33:46;;;;;;;;;;;9.40;99.90;;;;;;5030768;28;19916;-89
2024/01/03 03:36:12;;;;;;;;;;;9.40;99.90;;;;;;5039872;28;19948;-88
2024/01/03 03:38:38;;;;;;;;;;;9.40;99.90;;;;;;5035368;28;19908;-88
2024/01/03 03:41:07;;;;;;;;;;;9.30;99.90;;;;;;5037781;28;20431;-88
2024/01/03 03:43:33;;;;;;;;;;;9.30;99.90;;;;;;5037689;28;20012;-88
2024/01/03 03:45:58;;;;;;;;;;;9.30;99.90;;;;;;5044083;28;20381;-89
2024/01/03 03:48:24;;;;;;;;;;;9.30;99.90;;;;;;5036911;28;20011;-89
2024/01/03 03:50:50;;;;;;;;;;;9.30;99.90;;;;;;5038244;28;19959;-88
2024/01/03 03:53:15;;;;;;;;;;;9.40;99.90;;;;;;5036907;28;20376;-89
2024/01/03 03:55:42;;;;;;;;;;;9.40;99.90;;;;;;5039060;28;19951;-87
2024/01/03 03:58:08;;;;;;;;;;;9.50;99.90;;;;;;5037474;28;19917;-89
2024/01/03 04:00:33;;;;;;;;;;;9.50;99.90;;;;;;5041620;28;20555;-88
2024/01/03 04:02:59;;;;;;;;;;;9.50;99.90;;;;;;5054852;28;19955;-91
2024/01/03 04:05:24;;;;;;;;;;;9.60;99.90;;;;;;5039711;28;20102;-87
2024/01/03 04:07:50;;;;;;;;;;;9.60;99.90;;;;;;5035796;28;19920;-88
2024/01/03 04:10:15;;;;;;;;;;;9.60;99.90;;;;;;5034634;28;19952;-89
2024/01/03 04:12:41;;;;;;;;;;;9.60;99.90;;;;;;5034837;28;19942;-87
2024/01/03 04:15:07;;;;;;;;;;;9.60;99.90;;;;;;5035312;28;19925;-89
2024/01/03 04:17:32;;;;;;;;;;;9.60;99.90;;;;;;5038130;28;19929;-89
2024/01/03 04:19:59;;;;;;;;;;;9.60;99.90;;;;;;5037236;28;19925;-89
2024/01/03 04:22:25;;;;;;;;;;;9.60;99.90;;;;;;5040391;28;19929;-88
2024/01/03 04:24:51;;;;;;;;;;;9.60;99.90;;;;;;5038755;28;19933;-88
2024/01/03 04:27:17;;;;;;;;;;;9.50;99.90;;;;;;5037170;28;19909;-89
2024/01/03 04:29:42;;;;;;;;;;;9.50;99.90;;;;;;5035494;28;19937;-88
2024/01/03 04:32:08;;;;;;;;;;;9.40;99.90;;;;;;5035622;28;20015;-89
2024/01/03 04:34:33;;;;;;;;;;;9.40;99.90;;;;;;5038186;28;19928;-89
2024/01/03 04:36:59;;;;;;;;;;;9.50;99.90;;;;;;5040925;28;19913;-88
2024/01/03 04:39:24;;;;;;;;;;;9.60;99.90;;;;;;5038377;28;19936;-88
2024/01/03 04:41:50;;;;;;;;;;;9.60;99.90;;;;;;5037328;28;20440;-89
2024/01/03 04:44:16;;;;;;;;;;;9.70;99.90;;;;;;5036687;28;19937;-89
2024/01/03 04:46:41;;;;;;;;;;;9.70;99.90;;;;;;5037843;28;20337;-89
2024/01/03 04:49:07;;;;;;;;;;;9.60;99.90;;;;;;5040397;28;20478;-90
2024/01/03 04:51:32;;;;;;;;;;;9.60;99.90;;;;;;5040303;28;19931;-87
2024/01/03 04:53:58;;;;;;;;;;;9.40;99.90;;;;;;5038415;28;20520;-88
2024/01/03 04:56:26;;;;;;;;;;;9.40;99.90;;;;;;5036873;28;19943;-88
2024/01/03 04:58:51;;;;;;;;;;;9.50;99.90;;;;;;5042370;28;19928;-88
2024/01/03 05:01:17;;;;;;;;;;;9.50;99.90;;;;;;5038386;28;19932;-88
2024/01/03 05:03:42;;;;;;;;;;;9.50;99.90;;;;;;5036074;28;20453;-89
2024/01/03 05:06:08;;;;;;;;;;;9.50;99.90;;;;;;5038257;28;19917;-87
2024/01/03 05:08:33;;;;;;;;;;;9.50;99.90;;;;;;5040045;28;19969;-88
2024/01/03 05:10:59;;;;;;;;;;;9.50;99.90;;;;;;5035713;28;20444;-88
2024/01/03 05:13:25;;;;;;;;;;;9.50;99.90;;;;;;5042118;28;20296;-90
2024/01/03 05:15:51;;;;;;;;;;;9.40;99.90;;;;;;5049971;28;19936;-88
2024/01/03 05:18:17;;;;;;;;;;;9.30;99.90;;;;;;5047288;28;19927;-88
2024/01/03 05:20:42;;;;;;;;;;;9.30;99.90;;;;;;5040064;28;19920;-88
2024/01/03 05:23:08;;;;;;;;;;;9.30;99.90;;;;;;5036512;28;19951;-87
2024/01/03 05:25:33;;;;;;;;;;;9.30;99.90;;;;;;5035965;28;19951;-87
2024/01/03 05:27:59;;;;;;;;;;;9.30;99.90;;;;;;5045538;28;19927;-88
2024/01/03 05:30:24;;;;;;;;;;;9.20;99.90;;;;;;5042829;28;20655;-88
2024/01/03 05:32:50;;;;;;;;;;;9.20;99.90;;;;;;5037006;28;20429;-87
2024/01/03 05:35:15;;;;;;;;;;;9.20;99.90;;;;;;5036137;28;19943;-89
2024/01/03 05:37:41;;;;;;;;;;;9.20;99.90;;;;;;5032324;28;19956;-91
2024/01/03 05:40:07;;;;;;;;;;;9.10;99.90;;;;;;5029212;28;20308;-88
2024/01/03 05:42:33;;;;;;;;;;;9.10;99.90;;;;;;5035183;28;19935;-88
2024/01/03 05:44:58;;;;;;;;;;;9.20;99.90;;;;;;5037681;28;19971;-86
2024/01/03 05:47:24;;;;;;;;;;;9.10;99.90;;;;;;5035055;28;20424;-89
2024/01/03 05:49:50;;;;;;;;;;;9.20;99.90;;;;;;5037118;28;19920;-89
2024/01/03 05:52:16;;;;;;;;;;;9.20;99.90;;;;;;5038106;28;20307;-88
2024/01/03 05:54:41;;;;;;;;;;;9.10;99.90;;;;;;5038151;28;19925;-88
2024/01/03 05:57:07;;;;;;;;;;;9.10;99.90;;;;;;5041928;28;19947;-88
2024/01/03 05:59:33;;;;;;;;;;;9.10;99.90;;;;;;5043048;28;20010;-90
2024/01/03 06:01:58;;;;;;;;;;;9.00;99.90;;;;;;5036135;28;19940;-89
2024/01/03 06:04:25;;;;;;;;;;;9.10;99.90;;;;;;5037667;28;19932;-88
2024/01/03 06:06:50;;;;;;;;;;;9.10;99.90;;;;;;5037730;28;19974;-88
2024/01/03 06:09:16;;;;;;;;;;;9.10;99.90;;;;;;5037227;28;19952;-88
2024/01/03 06:11:41;;;;;;;;;;;9.10;99.90;;;;;;5040315;28;19924;-90
2024/01/03 06:14:07;;;;;;;;;;;9.10;99.90;;;;;;5036803;28;19968;-88
2024/01/03 06:16:32;;;;;;;;;;;9.20;99.90;;;;;;5035330;28;19942;-88
2024/01/03 06:18:58;;;;;;;;;;;9.20;99.90;;;;;;5036917;28;19909;-90
2024/01/03 06:21:23;;;;;;;;;;;9.20;99.90;;;;;;5038348;28;19912;-89
2024/01/03 06:23:49;;;;;;;;;;;9.30;99.90;;;;;;5036846;28;19915;-90
2024/01/03 06:26:14;;;;;;;;;;;9.30;99.90;;;;;;5032742;28;20376;-90
2024/01/03 06:28:40;;;;;;;;;;;9.40;99.90;;;;;;5044376;28;19936;-89
2024/01/03 06:31:06;;;;;;;;;;;9.30;99.90;;;;;;5038596;28;19912;-90
2024/01/03 06:33:32;;;;;;;;;;;9.30;99.90;;;;;;5035065;28;19916;-91
2024/01/03 06:35:58;;;;;;;;;;;9.30;99.90;;;;;;5031905;28;19946;-90
2024/01/03 06:38:24;;;;;;;;;;;9.30;99.90;;;;;;5040167;28;19909;-92
2024/01/03 06:40:49;;;;;;;;;;;9.30;99.90;;;;;;5038745;28;20008;-89
2024/01/03 06:43:15;;;;;;;;;;;9.40;99.90;;;;;;5036117;28;19916;-89
2024/01/03 06:45:40;;;;;;;;;;;9.40;99.90;;;;;;5037216;28;19920;-91
2024/01/03 06:48:07;;;;;;;;;;;9.40;99.90;;;;;;5037253;28;19912;-90
2024/01/03 06:50:34;;;;;;;;;;;9.40;99.90;;;;;;5042532;28;19916;-92
2024/01/03 06:53:00;;;;;;;;;;;9.30;99.90;;;;;;5038567;28;19975;-89
2024/01/03 06:55:25;;;;;;;;;;;9.20;99.90;;;;;;5035008;28;19967;-90
2024/01/03 06:57:53;;;;;;;;;;;9.30;99.90;;;;;;5035965;28;19916;-91
2024/01/03 07:00:18;;;;;;;;;;;9.40;99.90;;;;;;5030271;28;19917;-91
2024/01/03 07:02:44;;;;;;;;;;;9.40;99.90;;;;;;5035508;28;19905;-92
2024/01/03 07:05:09;;;;;;;;;;;9.30;99.90;;;;;;5030541;28;19913;-91
2024/01/03 07:07:35;;;;;;;;;;;9.20;99.90;;;;;;5036693;28;19994;-90
2024/01/03 07:10:00;;;;;;;;;;;9.20;99.90;;;;;;5047094;28;21460;-90
2024/01/03 07:12:26;;;;;;;;;;;9.20;99.90;;;;;;5034055;28;20024;-91
2024/01/03 07:14:51;;;;;;;;;;;9.10;99.90;;;;;;5037304;28;19909;-90
2024/01/03 07:17:17;;;;;;;;;;;9.10;99.90;;;;;;5035162;28;19951;-91
2024/01/03 07:19:43;;;;;;;;;;;9.10;99.90;;;;;;5036725;28;19916;-90
2024/01/03 07:22:08;;;;;;;;;;;9.10;99.90;;;;;;5034239;28;20434;-90
2024/01/03 07:24:35;;;;;;;;;;;9.10;99.90;;;;;;5038676;28;19992;-90
2024/01/03 07:27:01;;;;;;;;;;;9.20;99.90;;;;;;5038450;28;19905;-91
2024/01/03 07:29:26;;;;;;;;;;;9.30;99.90;;;;;;5038559;28;19929;-89
2024/01/03 07:31:52;;;;;;;;;;;9.30;99.90;;;;;;5033250;28;19970;-89
2024/01/03 07:34:17;;;;;;;;;;;9.30;99.90;;;;;;5034877;28;20599;-91
2024/01/03 07:36:43;;;;;;;;;;;9.30;99.90;;;;;;5041192;28;19980;-90
2024/01/03 07:39:09;;;;;;;;;;;9.20;99.90;;;;;;5044911;28;20047;-89
2024/01/03 07:41:36;;;;;;;;;;;9.10;99.90;;;;;;5040212;28;20090;-88
2024/01/03 07:44:01;;;;;;;;;;;9.10;99.90;;;;;;5042292;28;19941;-90
2024/01/03 07:46:27;;;;;;;;;;;9.20;99.90;;;;;;5037467;28;20005;-89
2024/01/03 07:48:53;;;;;;;;;;;9.30;99.90;;;;;;5041882;28;19926;-89
2024/01/03 07:51:18;;;;;;;;;;;9.30;99.90;;;;;;5042448;28;19921;-89
2024/01/03 07:53:44;;;;;;;;;;;9.30;99.90;;;;;;5042587;28;19943;-89
2024/01/03 07:56:09;;;;;;;;;;;9.20;99.90;;;;;;5039888;28;19983;-89
2024/01/03 07:58:35;;;;;;;;;;;9.20;99.90;;;;;;5041585;28;19928;-89
2024/01/03 08:01:01;;;;;;;;;;;9.30;99.90;;;;;;5037662;28;19956;-90
2024/01/03 08:03:26;;;;;;;;;;;9.40;99.90;;;;;;5036376;28;20019;-89
2024/01/03 08:05:53;;;;;;;;;;;9.40;99.90;;;;;;5040127;28;19991;-90
2024/01/03 08:08:19;;;;;;;;;;;9.40;99.90;;;;;;5036372;28;19929;-89
2024/01/03 08:10:44;;;;;;;;;;;9.50;99.90;;;;;;5035759;28;19928;-89
2024/01/03 08:13:11;;;;;;;;;;;9.50;99.90;;;;;;5042599;28;19935;-91
2024/01/03 08:15:36;;;;;;;;;;;9.50;99.90;;;;;;5039225;28;19951;-89
2024/01/03 08:18:02;;;;;;;;;;;9.60;99.90;;;;;;5037520;28;19927;-88
2024/01/03 08:20:27;;;;;;;;;;;9.70;99.90;;;;;;5040180;28;19931;-88
2024/01/03 08:22:53;;;;;;;;;;;9.70;99.90;;;;;;5037657;28;19929;-89
2024/01/03 08:25:18;;;;;;;;;;;9.70;99.90;;;;;;5040755;28;19949;-89
2024/01/03 08:27:44;;;;;;;;;;;9.70;99.90;;;;;;5036220;28;19928;-90
2024/01/03 08:30:10;;;;;;;;;;;9.60;99.90;;;;;;5038089;28;19930;-89
2024/01/03 08:32:37;;;;;;;;;;;9.70;99.90;;;;;;5034276;28;20046;-87
2024/01/03 08:35:03;;;;;;;;;;;9.70;99.90;;;;;;5035756;28;19932;-88
2024/01/03 08:37:29;;;;;;;;;;;9.70;99.90;;;;;;5037820;28;19927;-90
2024/01/03 08:39:55;;;;;;;;;;;9.70;99.90;;;;;;5039635;28;19932;-88
2024/01/03 08:42:22;;;;;;;;;;;9.80;99.90;;;;;;5040908;28;19921;-89
2024/01/03 08:44:48;;;;;;;;;;;9.70;99.90;;;;;;5038752;28;19930;-89
2024/01/03 08:47:13;;;;;;;;;;;9.80;99.90;;;;;;5051747;28;19937;-89
2024/01/03 08:49:39;;;;;;;;;;;9.80;99.90;;;;;;5054505;28;19924;-88
2024/01/03 08:52:05;;;;;;;;;;;9.80;99.90;;;;;;5047241;28;20582;-89
2024/01/03 08:54:30;;;;;;;;;;;9.90;99.90;;;;;;5035207;28;20462;-88
2024/01/03 08:56:56;;;;;;;;;;;10.00;99.90;;;;;;5039915;28;19975;-88
2024/01/03 08:59:22;;;;;;;;;;;10.00;99.90;;;;;;5037368;28;20646;-88
2024/01/03 09:01:52;;;;;;;;;;;10.10;99.90;;;;;;5033471;28;20361;-88
2024/01/03 09:04:18;;;;;;;;;;;10.20;99.90;;;;;;5041812;28;19962;-88
2024/01/03 09:06:43;;;;;;;;;;;10.20;99.90;;;;;;5036962;28;19969;-89
2024/01/03 09:09:09;;;;;;;;;;;10.30;99.90;;;;;;5033674;28;19929;-89
2024/01/03 09:11:34;;;;;;;;;;;10.30;99.90;;;;;;5039398;28;19934;-88
2024/01/03 09:14:00;;;;;;;;;;;10.40;99.90;;;;;;5034519;28;19974;-90
2024/01/03 09:16:26;;;;;;;;;;;10.40;99.90;;;;;;5034508;28;19917;-89
2024/01/03 09:18:52;;;;;;;;;;;10.40;99.90;;;;;;5035036;28;19909;-89
2024/01/03 09:21:18;;;;;;;;;;;10.50;99.90;;;;;;5039198;28;19953;-89
2024/01/03 09:23:43;;;;;;;;;;;10.30;99.90;;;;;;5038149;28;19975;-87
2024/01/03 09:26:10;;;;;;;;;;;10.10;99.90;;;;;;5036025;28;19969;-89
2024/01/03 09:28:37;;;;;;;;;;;10.10;99.90;;;;;;5036790;28;19923;-89
2024/01/03 09:31:03;;;;;;;;;;;10.20;99.90;;;;;;5041624;28;20280;-88
2024/01/03 09:33:28;;;;;;;;;;;10.30;99.90;;;;;;5035147;28;19953;-89
2024/01/03 09:35:54;;;;;;;;;;;10.50;99.90;;;;;;5038072;28;19955;-89
2024/01/03 09:38:19;;;;;;;;;;;10.60;99.90;;;;;;5038462;28;19917;-88
2024/01/03 09:40:45;;;;;;;;;;;10.50;99.90;;;;;;5032460;28;19994;-89
2024/01/03 09:43:11;;;;;;;;;;;10.50;99.90;;;;;;5032851;28;19934;-89
2024/01/03 09:45:37;;;;;;;;;;;10.50;99.90;;;;;;5032915;28;19973;-89
2024/01/03 09:48:04;;;;;;;;;;;10.50;99.90;;;;;;5035603;28;19919;-88
2024/01/03 09:50:30;;;;;;;;;;;10.50;99.90;;;;;;5037107;28;19949;-87
2024/01/03 09:52:56;;;;;;;;;;;10.60;99.90;;;;;;5032739;28;19994;-88
2024/01/03 09:55:21;;;;;;;;;;;10.60;99.90;;;;;;5034233;28;20304;-88
2024/01/03 09:57:49;;;;;;;;;;;10.50;99.90;;;;;;5036798;28;20482;-88
2024/01/03 10:00:15;;;;;;;;;;;10.30;99.90;;;;;;5035123;28;19926;-89
2024/01/03 10:02:45;;;;;;;;;;;10.30;99.90;;;;;;5035611;28;19926;-87
2024/01/03 10:05:18;;;;;;;;;;;10.30;99.90;;;;;;5036164;28;19913;-88
2024/01/03 10:07:44;;;;;;;;;;;10.30;99.90;;;;;;5033269;28;19926;-90
2024/01/03 10:10:10;;;;;;;;;;;10.50;99.90;;;;;;5037057;28;19929;-87
2024/01/03 10:12:36;;;;;;;;;;;10.60;99.90;;;;;;5032731;28;20786;-88
2024/01/03 10:15:17;;;;;;;;;;;10.80;99.90;;;;;;5029243;28;20051;-88
2024/01/03 10:17:45;;;;;;;;;;;11.60;99.90;;;;;;5037585;28;20020;-89
2024/01/03 10:20:23;;;;;;;;;;;12.20;99.90;;;;;;5039295;28;20433;-89
2024/01/03 10:22:48;;;;;;;;;;;12.60;97.60;;;;;;5029068;28;19939;-90
2024/01/03 10:25:15;;;;;;;;;;;12.80;93.90;;;;;;5041414;28;19932;-90
2024/01/03 10:27:42;;;;;;;;;;;12.50;93.10;;;;;;5042724;28;19923;-90
2024/01/03 10:30:15;;;;;;;;;;;12.00;94.50;;;;;;5042786;28;19953;-89
2024/01/03 10:32:41;;;;;;;;;;;11.60;95.10;;;;;;5035698;28;19962;-89
2024/01/03 10:35:15;;;;;;;;;;;11.50;94.90;;;;;;5030328;28;19946;-89
2024/01/03 10:37:41;;;;;;;;;;;11.50;95.10;;;;;;5036090;28;19944;-91
2024/01/03 10:40:07;;;;;;;;;;;11.60;95.70;;;;;;5031390;28;20296;-90
2024/01/03 10:42:32;;;;;;;;;;;11.60;94.90;;;;;;5036763;28;19948;-90
2024/01/03 10:44:58;;;;;;;;;;;11.50;95.60;;;;;;5036442;28;20175;-91
2024/01/03 10:47:23;;;;;;;;;;;11.40;98.30;;;;;;5033005;28;20391;-91
2024/01/03 10:49:49;;;;;;;;;;;11.40;96.40;;;;;;5032913;28;20011;-89
2024/01/03 10:52:17;;;;;;;;;;;11.50;95.30;;;;;;5033778;28;19920;-91
2024/01/03 10:54:48;;;;;;;;;;;11.40;95.40;;;;;;5037174;28;19953;-88
2024/01/03 10:57:16;;;;;;;;;;;11.30;96.80;;;;;;5035134;28;19933;-89
2024/01/03 10:59:50;;;;;;;;;;;11.20;96.50;;;;;;5033461;28;19925;-88
2024/01/03 11:02:35;;;;;;;;;;;11.10;97.30;;;;;;5032727;28;19926;-89
2024/01/03 11:05:07;;;;;;;;;;;11.20;98.30;;;;;;5036141;28;19925;-89
2024/01/03 11:07:37;;;;;;;;;;;11.50;99.40;;;;;;5029564;28;19916;-90
2024/01/03 11:10:02;;;;;;;;;;;11.70;96.40;;;;;;5033695;28;19991;-89
2024/01/03 11:12:29;;;;;;;;;;;11.70;96.60;;;;;;5020245;28;21021;-89
2024/01/03 11:14:54;;;;;;;;;;;11.60;97.70;;;;;;5027650;28;19925;-89
2024/01/03 11:17:35;;;;;;;;;;;11.50;99.20;;;;;;5030021;28;19998;-88
2024/01/03 11:20:06;;;;;;;;;;;11.50;99.80;;;;;;5035140;28;19932;-88
2024/01/03 11:22:52;;;;;;;;;;;11.60;99.20;;;;;;5035284;28;19925;-90
2024/01/03 11:25:37;;;;;;;;;;;11.60;99.70;;;;;;5031970;28;19942;-88
2024/01/03 11:28:23;;;;;;;;;;;11.60;99.90;;;;;;5029027;28;20338;-90
2024/01/03 11:30:48;;;;;;;;;;;11.70;99.80;;;;;;5027825;28;19979;-90
2024/01/03 11:33:31;;;;;;;;;;;11.50;99.60;;;;;;5027749;28;20518;-89
2024/01/03 11:35:57;;;;;;;;;;;11.50;99.90;;;;;;5026829;28;19938;-89
2024/01/03 11:38:40;;;;;;;;;;;11.40;99.90;;;;;;5025246;28;20026;-89
2024/01/03 11:41:06;;;;;;;;;;;11.30;99.90;;;;;;5022834;28;20649;-90
2024/01/03 11:43:31;;;;;;;;;;;11.30;99.90;;;;;;5027399;28;19944;-89
2024/01/03 11:46:13;;;;;;;;;;;11.30;99.90;;;;;;5023528;28;19946;-89
2024/01/03 11:48:38;;;;;;;;;;;11.80;98.00;;;;;;5032755;28;19923;-87
2024/01/03 11:51:21;;;;;;;;;;;12.70;92.40;;;;;;5033623;28;19916;-91
2024/01/03 11:53:46;;;;;;;;;;;13.60;87.40;;;;;;5028336;28;20280;-89
2024/01/03 11:56:24;;;;;;;;;;;14.40;78.90;;;;;;5029732;28;20394;-91
2024/01/03 11:58:55;;;;;;;;;;;14.80;78.40;;;;;;5031959;28;19921;-90
2024/01/03 12:01:29;;;;;;;;;;;15.10;75.10;;;;;;5020526;28;19938;-92
2024/01/03 12:04:11;;;;;;;;;;;14.40;76.70;;;;;;5020896;28;20016;-89
2024/01/03 12:06:37;;;;;;;;;;;14.50;77.80;;;;;;5023430;28;20414;-90
2024/01/03 12:09:03;;;;;;;;;;;15.30;75.80;;;;;;5026049;28;19913;-89
2024/01/03 12:11:29;;;;;;;;;;;14.60;75.50;;;;;;5035006;28;19975;-89
2024/01/03 12:13:55;;;;;;;;;;;13.20;84.40;;;;;;5029886;28;20307;-90
2024/01/03 12:16:21;;;;;;;;;;;12.30;92.50;;;;;;5026708;28;19913;-90
2024/01/03 12:18:48;;;;;;;;;;;11.80;97.50;;;;;;5030871;28;19920;-88
2024/01/03 12:21:13;;;;;;;;;;;11.60;96.70;;;;;;5040119;28;19917;-89
2024/01/03 12:23:39;;;;;;;;;;;11.40;99.40;;;;;;5029597;28;20324;-88
2024/01/03 12:26:08;;;;;;;;;;;11.40;98.40;;;;;;5028838;28;19934;-89
2024/01/03 12:28:33;;;;;;;;;;;11.30;97.60;;;;;;5024133;28;19994;-88
2024/01/03 12:30:59;;;;;;;;;;;11.30;98.10;;;;;;5027368;28;20403;-90
2024/01/03 12:33:25;;;;;;;;;;;11.20;99.40;;;;;;5027213;28;19928;-90
2024/01/03 12:35:53;;;;;;;;;;;11.20;99.50;;;;;;5027321;28;20318;-91
2024/01/03 12:38:20;;;;;;;;;;;11.20;99.90;;;;;;5025061;28;19931;-90
2024/01/03 12:40:47;;;;;;;;;;;11.20;99.50;;;;;;5030441;28;19942;-89
2024/01/03 12:43:12;;;;;;;;;;;11.20;99.40;;;;;;5029210;28;19935;-89
2024/01/03 12:45:38;;;;;;;;;;;11.30;98.30;;;;;;5025352;28;19943;-90
2024/01/03 12:48:03;;;;;;;;;;;11.40;97.80;;;;;;5030504;28;20029;-90
2024/01/03 12:50:29;;;;;;;;;;;11.40;96.80;;;;;;5028956;28;20298;-91
2024/01/03 12:52:54;;;;;;;;;;;11.50;97.60;;;;;;5024728;28;19941;-92
2024/01/03 12:55:20;;;;;;;;;;;11.60;95.00;;;;;;5025996;28;20520;-90
2024/01/03 12:57:46;;;;;;;;;;;11.60;97.50;;;;;;5026930;28;20265;-89
2024/01/03 13:00:12;;;;;;;;;;;11.60;94.90;;;;;;5033395;28;19934;-89
2024/01/03 13:02:37;;;;;;;;;;;11.60;95.20;;;;;;5035373;28;19909;-89
2024/01/03 13:05:03;;;;;;;;;;;11.70;95.80;;;;;;5038997;28;20033;-89
2024/01/03 13:07:29;;;;;;;;;;;11.70;95.40;;;;;;5035723;28;19942;-90
2024/01/03 13:09:54;;;;;;;;;;;11.70;94.50;;;;;;5039536;28;20381;-91
2024/01/03 13:12:21;;;;;;;;;;;11.60;96.10;;;;;;5037052;28;20313;-90
2024/01/03 13:14:46;;;;;;;;;;;11.50;98.10;;;;;;5038405;28;19933;-91
2024/01/03 13:17:13;;;;;;;;;;;11.30;97.70;;;;;;5036754;28;19909;-89
2024/01/03 13:19:38;;;;;;;;;;;11.30;97.50;;;;;;5035957;28;19955;-91
2024/01/03 13:22:04;;;;;;;;;;;11.30;97.70;;;;;;5035551;28;19961;-90
2024/01/03 13:24:34;;;;;;;;;;;11.20;99.40;;;;;;5035849;28;19920;-91
2024/01/03 13:26:59;;;;;;;;;;;11.30;99.30;;;;;;5038502;28;20018;-90
2024/01/03 13:29:25;;;;;;;;;;;11.40;97.20;;;;;;5034460;28;20380;-91
2024/01/03 13:31:50;;;;;;;;;;;11.40;95.40;;;;;;5036528;28;19920;-90
2024/01/03 13:34:16;;;;;;;;;;;11.40;96.20;;;;;;5037692;28;19989;-91
2024/01/03 13:36:42;;;;;;;;;;;11.40;95.30;;;;;;5034307;28;20485;-90
2024/01/03 13:39:09;;;;;;;;;;;11.40;94.70;;;;;;5029943;28;19970;-90
2024/01/03 13:41:34;;;;;;;;;;;11.40;94.60;;;;;;5033562;28;19926;-89
2024/01/03 13:44:00;;;;;;;;;;;11.40;93.90;;;;;;5032920;28;19950;-90
2024/01/03 13:46:26;;;;;;;;;;;11.30;95.90;;;;;;5032988;28;20368;-91
2024/01/03 13:48:51;;;;;;;;;;;11.30;95.50;;;;;;5034126;28;19921;-90
2024/01/03 13:51:21;;;;;;;;;;;11.30;96.40;;;;;;5030901;28;19920;-90
2024/01/03 13:53:47;;;;;;;;;;;11.30;96.80;;;;;;5033185;28;19924;-90
2024/01/03 13:56:20;;;;;;;;;;;11.40;95.30;;;;;;5048994;28;20002;-89
2024/01/03 13:58:48;;;;;;;;;;;11.40;93.60;;;;;;5032734;28;19924;-91
2024/01/03 14:01:14;;;;;;;;;;;11.60;92.30;;;;;;5034430;28;20020;-90
2024/01/03 14:03:39;;;;;;;;;;;11.90;92.00;;;;;;5033392;28;19995;-90
2024/01/03 14:06:05;;;;;;;;;;;12.10;90.10;;;;;;5038141;28;19916;-92
2024/01/03 14:08:31;;;;;;;;;;;12.40;86.60;;;;;;5035035;28;19959;-91
2024/01/03 14:10:56;;;;;;;;;;;12.40;84.60;;;;;;5035485;28;20378;-90
2024/01/03 14:13:22;;;;;;;;;;;12.40;88.80;;;;;;5035777;28;19912;-90
2024/01/03 14:15:48;;;;;;;;;;;12.30;83.70;;;;;;5037865;28;19940;-92
2024/01/03 14:18:15;;;;;;;;;;;12.20;85.00;;;;;;5035223;28;19972;-89
2024/01/03 14:20:41;;;;;;;;;;;12.50;84.20;;;;;;5040178;28;19917;-90